Home

PKWA Terminal Aerodrome Forecast (TAF)small logo


TAF provided by NWS Guam
2014/10/23 18:51
TAF COR PKWA 231731Z 2318/2418 09011KT P6SM VCSH SCT016 SCT040 BKN120 
      TEMPO 2318/2321 05012G20KT 4SM SHRA SCT014 BKN025 
     FM232100 11011KT 6SM -RA VCTS SCT014CB BKN040 OVC100 
      TEMPO 2321/2401 07012G20KT 2SM +SHRA BKN012 OVC020 
     FM240200 13009KT P6SM VCSH SCT016 BKN060 OVC120

      



Site Map | Contact Us | Copyright © 2007 Atmospheric Technology Services Company. All rights reserved.